sensor_id;sensor_type;location;lat;lon;timestamp;temperature;humidity
23122;DHT22;11730;51.248;22.534;2023-06-05T00:02:18;13.60;4.40
23122;DHT22;11730;51.248;22.534;2023-06-05T00:04:45;13.70;4.20
23122;DHT22;11730;51.248;22.534;2023-06-05T00:07:12;13.80;3.80
23122;DHT22;11730;51.248;22.534;2023-06-05T00:09:39;13.80;3.50
23122;DHT22;11730;51.248;22.534;2023-06-05T00:12:06;13.70;4.20
23122;DHT22;11730;51.248;22.534;2023-06-05T00:14:33;13.60;4.20
23122;DHT22;11730;51.248;22.534;2023-06-05T00:17:00;13.50;4.30
23122;DHT22;11730;51.248;22.534;2023-06-05T00:19:27;13.50;4.10
23122;DHT22;11730;51.248;22.534;2023-06-05T00:21:54;13.50;4.00
23122;DHT22;11730;51.248;22.534;2023-06-05T00:24:21;13.40;4.50
23122;DHT22;11730;51.248;22.534;2023-06-05T00:26:48;13.30;4.50
23122;DHT22;11730;51.248;22.534;2023-06-05T00:29:15;13.50;4.00
23122;DHT22;11730;51.248;22.534;2023-06-05T00:31:43;13.50;3.90
23122;DHT22;11730;51.248;22.534;2023-06-05T00:34:10;13.70;3.20
23122;DHT22;11730;51.248;22.534;2023-06-05T00:36:37;13.70;3.20
23122;DHT22;11730;51.248;22.534;2023-06-05T00:39:07;13.70;3.10
23122;DHT22;11730;51.248;22.534;2023-06-05T00:41:36;13.60;2.70
23122;DHT22;11730;51.248;22.534;2023-06-05T00:44:04;13.60;2.90
23122;DHT22;11730;51.248;22.534;2023-06-05T00:46:31;13.50;3.30
23122;DHT22;11730;51.248;22.534;2023-06-05T00:48:58;13.20;4.10
23122;DHT22;11730;51.248;22.534;2023-06-05T00:51:25;13.00;4.50
23122;DHT22;11730;51.248;22.534;2023-06-05T00:53:53;13.00;4.90
23122;DHT22;11730;51.248;22.534;2023-06-05T00:56:20;12.90;5.10
23122;DHT22;11730;51.248;22.534;2023-06-05T00:58:48;12.90;5.10
23122;DHT22;11730;51.248;22.534;2023-06-05T01:01:15;12.70;5.60
23122;DHT22;11730;51.248;22.534;2023-06-05T01:03:43;12.70;6.00
23122;DHT22;11730;51.248;22.534;2023-06-05T01:06:11;12.70;6.00
23122;DHT22;11730;51.248;22.534;2023-06-05T01:08:38;12.70;5.70
23122;DHT22;11730;51.248;22.534;2023-06-05T01:11:33;12.70;6.50
23122;DHT22;11730;51.248;22.534;2023-06-05T01:16:34;12.80;5.20
23122;DHT22;11730;51.248;22.534;2023-06-05T01:19:01;12.90;4.90
23122;DHT22;11730;51.248;22.534;2023-06-05T01:21:32;13.00;4.30
23122;DHT22;11730;51.248;22.534;2023-06-05T01:23:59;13.00;4.00
23122;DHT22;11730;51.248;22.534;2023-06-05T01:26:33;13.00;4.40
23122;DHT22;11730;51.248;22.534;2023-06-05T01:29:05;13.00;4.10
23122;DHT22;11730;51.248;22.534;2023-06-05T01:31:33;13.00;4.20
23122;DHT22;11730;51.248;22.534;2023-06-05T01:34:07;12.80;4.70
23122;DHT22;11730;51.248;22.534;2023-06-05T01:36:35;12.80;5.00
23122;DHT22;11730;51.248;22.534;2023-06-05T01:39:03;12.70;5.20
23122;DHT22;11730;51.248;22.534;2023-06-05T01:41:32;12.60;4.70
23122;DHT22;11730;51.248;22.534;2023-06-05T01:44:00;12.70;4.70
23122;DHT22;11730;51.248;22.534;2023-06-05T01:46:27;12.70;4.30
23122;DHT22;11730;51.248;22.534;2023-06-05T01:48:55;12.70;4.50
23122;DHT22;11730;51.248;22.534;2023-06-05T01:51:22;12.70;4.30
23122;DHT22;11730;51.248;22.534;2023-06-05T01:53:49;12.80;3.90
23122;DHT22;11730;51.248;22.534;2023-06-05T01:56:16;12.70;4.50
23122;DHT22;11730;51.248;22.534;2023-06-05T01:58:46;12.60;4.20
23122;DHT22;11730;51.248;22.534;2023-06-05T02:01:14;12.60;4.30
23122;DHT22;11730;51.248;22.534;2023-06-05T02:03:42;11.80;4.80
23122;DHT22;11730;51.248;22.534;2023-06-05T02:06:18;12.30;5.40
23122;DHT22;11730;51.248;22.534;2023-06-05T02:08:45;12.10;5.50
23122;DHT22;11730;51.248;22.534;2023-06-05T02:11:12;12.10;5.50
23122;DHT22;11730;51.248;22.534;2023-06-05T02:13:39;12.20;5.40
23122;DHT22;11730;51.248;22.534;2023-06-05T02:16:11;12.20;5.30
23122;DHT22;11730;51.248;22.534;2023-06-05T02:18:38;12.10;5.60
23122;DHT22;11730;51.248;22.534;2023-06-05T02:21:05;12.10;5.10
23122;DHT22;11730;51.248;22.534;2023-06-05T02:23:32;12.00;5.80
23122;DHT22;11730;51.248;22.534;2023-06-05T02:26:00;12.00;5.90
23122;DHT22;11730;51.248;22.534;2023-06-05T02:28:27;12.00;6.00
23122;DHT22;11730;51.248;22.534;2023-06-05T02:30:54;12.10;5.50
23122;DHT22;11730;51.248;22.534;2023-06-05T02:33:21;12.10;5.50
23122;DHT22;11730;51.248;22.534;2023-06-05T02:35:50;12.10;5.20
23122;DHT22;11730;51.248;22.534;2023-06-05T02:38:17;12.00;5.30
23122;DHT22;11730;51.248;22.534;2023-06-05T02:40:44;12.00;6.00
23122;DHT22;11730;51.248;22.534;2023-06-05T02:43:11;12.00;5.30
23122;DHT22;11730;51.248;22.534;2023-06-05T02:45:39;12.10;5.40
23122;DHT22;11730;51.248;22.534;2023-06-05T02:48:06;12.10;5.30
23122;DHT22;11730;51.248;22.534;2023-06-05T02:50:33;12.10;5.40
23122;DHT22;11730;51.248;22.534;2023-06-05T02:53:00;12.10;5.40
23122;DHT22;11730;51.248;22.534;2023-06-05T02:55:27;12.00;5.50
23122;DHT22;11730;51.248;22.534;2023-06-05T02:57:56;12.00;5.60
23122;DHT22;11730;51.248;22.534;2023-06-05T03:00:24;12.00;5.80
23122;DHT22;11730;51.248;22.534;2023-06-05T03:02:52;11.90;5.90
23122;DHT22;11730;51.248;22.534;2023-06-05T03:05:19;12.00;5.90
23122;DHT22;11730;51.248;22.534;2023-06-05T03:07:51;12.00;5.40
23122;DHT22;11730;51.248;22.534;2023-06-05T03:10:22;12.10;5.70
23122;DHT22;11730;51.248;22.534;2023-06-05T03:12:49;12.10;5.70
23122;DHT22;11730;51.248;22.534;2023-06-05T03:15:16;12.00;6.00
23122;DHT22;11730;51.248;22.534;2023-06-05T03:17:44;12.00;6.30
23122;DHT22;11730;51.248;22.534;2023-06-05T03:20:12;11.90;6.80
23122;DHT22;11730;51.248;22.534;2023-06-05T03:22:39;11.90;6.70
23122;DHT22;11730;51.248;22.534;2023-06-05T03:25:07;12.00;6.80
23122;DHT22;11730;51.248;22.534;2023-06-05T03:27:35;12.00;6.60
23122;DHT22;11730;51.248;22.534;2023-06-05T03:30:03;12.00;6.50
23122;DHT22;11730;51.248;22.534;2023-06-05T03:32:31;12.10;6.50
23122;DHT22;11730;51.248;22.534;2023-06-05T03:34:58;12.10;6.00
23122;DHT22;11730;51.248;22.534;2023-06-05T03:37:25;12.20;6.10
23122;DHT22;11730;51.248;22.534;2023-06-05T03:39:52;12.40;5.20
23122;DHT22;11730;51.248;22.534;2023-06-05T03:42:19;12.40;5.30
23122;DHT22;11730;51.248;22.534;2023-06-05T03:44:46;12.40;5.40
23122;DHT22;11730;51.248;22.534;2023-06-05T03:47:13;12.50;4.90
23122;DHT22;11730;51.248;22.534;2023-06-05T03:49:41;12.50;5.00
23122;DHT22;11730;51.248;22.534;2023-06-05T03:52:15;12.60;4.70
23122;DHT22;11730;51.248;22.534;2023-06-05T03:54:43;12.70;4.40
23122;DHT22;11730;51.248;22.534;2023-06-05T03:57:13;12.80;4.60
23122;DHT22;11730;51.248;22.534;2023-06-05T03:59:41;12.80;4.50
23122;DHT22;11730;51.248;22.534;2023-06-05T04:02:08;12.90;4.50
23122;DHT22;11730;51.248;22.534;2023-06-05T04:04:35;13.10;4.00
23122;DHT22;11730;51.248;22.534;2023-06-05T04:07:02;13.10;2.70
23122;DHT22;11730;51.248;22.534;2023-06-05T04:09:29;13.10;2.70
23122;DHT22;11730;51.248;22.534;2023-06-05T04:11:56;13.10;2.80
23122;DHT22;11730;51.248;22.534;2023-06-05T04:14:24;13.10;3.30
23122;DHT22;11730;51.248;22.534;2023-06-05T04:16:51;13.20;3.20
23122;DHT22;11730;51.248;22.534;2023-06-05T04:19:19;13.30;2.60
23122;DHT22;11730;51.248;22.534;2023-06-05T04:21:47;13.30;2.10
23122;DHT22;11730;51.248;22.534;2023-06-05T04:24:14;13.40;1.80
23122;DHT22;11730;51.248;22.534;2023-06-05T04:26:41;13.20;2.00
23122;DHT22;11730;51.248;22.534;2023-06-05T04:29:08;13.40;2.20
23122;DHT22;11730;51.248;22.534;2023-06-05T04:31:46;13.50;1.70
23122;DHT22;11730;51.248;22.534;2023-06-05T04:34:17;13.50;1.20
23122;DHT22;11730;51.248;22.534;2023-06-05T04:36:45;13.50;1.10
23122;DHT22;11730;51.248;22.534;2023-06-05T04:39:13;13.60;1.30
23122;DHT22;11730;51.248;22.534;2023-06-05T04:41:46;13.80;1.00
23122;DHT22;11730;51.248;22.534;2023-06-05T04:44:28;13.90;1.00
23122;DHT22;11730;51.248;22.534;2023-06-05T04:46:55;14.00;1.00
23122;DHT22;11730;51.248;22.534;2023-06-05T04:49:22;14.10;1.00
23122;DHT22;11730;51.248;22.534;2023-06-05T04:51:49;14.20;1.00
23122;DHT22;11730;51.248;22.534;2023-06-05T04:54:16;14.30;1.00
23122;DHT22;11730;51.248;22.534;2023-06-05T04:56:43;14.30;1.00
23122;DHT22;11730;51.248;22.534;2023-06-05T04:59:12;14.20;1.00
23122;DHT22;11730;51.248;22.534;2023-06-05T05:01:39;14.30;1.00
23122;DHT22;11730;51.248;22.534;2023-06-05T05:04:07;14.50;1.00
23122;DHT22;11730;51.248;22.534;2023-06-05T05:06:35;14.50;1.00
23122;DHT22;11730;51.248;22.534;2023-06-05T05:09:02;14.60;1.00
23122;DHT22;11730;51.248;22.534;2023-06-05T05:11:31;14.70;1.00
23122;DHT22;11730;51.248;22.534;2023-06-05T05:13:58;14.70;1.00
23122;DHT22;11730;51.248;22.534;2023-06-05T05:16:25;14.80;1.00
23122;DHT22;11730;51.248;22.534;2023-06-05T05:18:52;14.90;1.00
23122;DHT22;11730;51.248;22.534;2023-06-05T05:21:19;15.00;1.00
23122;DHT22;11730;51.248;22.534;2023-06-05T05:23:46;15.00;1.00
23122;DHT22;11730;51.248;22.534;2023-06-05T05:26:13;15.10;1.00
23122;DHT22;11730;51.248;22.534;2023-06-05T05:28:40;15.20;1.00
23122;DHT22;11730;51.248;22.534;2023-06-05T05:31:07;15.20;1.00
23122;DHT22;11730;51.248;22.534;2023-06-05T05:33:35;15.20;1.00
23122;DHT22;11730;51.248;22.534;2023-06-05T05:36:02;15.30;1.00
23122;DHT22;11730;51.248;22.534;2023-06-05T05:38:30;15.40;1.00
23122;DHT22;11730;51.248;22.534;2023-06-05T05:40:57;15.40;1.00
23122;DHT22;11730;51.248;22.534;2023-06-05T05:43:24;15.50;1.00
23122;DHT22;11730;51.248;22.534;2023-06-05T05:45:52;15.60;1.00
23122;DHT22;11730;51.248;22.534;2023-06-05T05:48:19;15.70;1.00
23122;DHT22;11730;51.248;22.534;2023-06-05T05:50:46;15.80;1.00
23122;DHT22;11730;51.248;22.534;2023-06-05T05:53:13;15.90;1.00
23122;DHT22;11730;51.248;22.534;2023-06-05T05:55:40;16.00;1.00
23122;DHT22;11730;51.248;22.534;2023-06-05T05:58:07;16.10;1.00
23122;DHT22;11730;51.248;22.534;2023-06-05T06:00:35;16.20;1.00
23122;DHT22;11730;51.248;22.534;2023-06-05T06:03:02;16.30;1.00
23122;DHT22;11730;51.248;22.534;2023-06-05T06:05:30;16.40;1.00
23122;DHT22;11730;51.248;22.534;2023-06-05T06:07:57;16.50;1.00
23122;DHT22;11730;51.248;22.534;2023-06-05T06:10:24;16.50;1.00
23122;DHT22;11730;51.248;22.534;2023-06-05T06:12:53;16.60;1.00
23122;DHT22;11730;51.248;22.534;2023-06-05T06:15:20;16.60;1.00
23122;DHT22;11730;51.248;22.534;2023-06-05T06:17:47;16.70;1.00
23122;DHT22;11730;51.248;22.534;2023-06-05T06:20:14;16.90;1.00
23122;DHT22;11730;51.248;22.534;2023-06-05T06:22:42;16.80;1.00
23122;DHT22;11730;51.248;22.534;2023-06-05T06:25:11;16.90;1.00
23122;DHT22;11730;51.248;22.534;2023-06-05T06:27:38;16.80;1.00
23122;DHT22;11730;51.248;22.534;2023-06-05T06:30:06;17.10;1.00
23122;DHT22;11730;51.248;22.534;2023-06-05T06:32:34;17.20;1.00
23122;DHT22;11730;51.248;22.534;2023-06-05T06:35:00;17.30;1.00
23122;DHT22;11730;51.248;22.534;2023-06-05T06:37:27;17.40;1.00
23122;DHT22;11730;51.248;22.534;2023-06-05T06:39:55;17.40;1.00
23122;DHT22;11730;51.248;22.534;2023-06-05T06:42:22;17.50;1.00
23122;DHT22;11730;51.248;22.534;2023-06-05T06:44:49;17.60;1.00
23122;DHT22;11730;51.248;22.534;2023-06-05T06:47:22;17.70;1.00
23122;DHT22;11730;51.248;22.534;2023-06-05T06:49:53;17.80;1.00
23122;DHT22;11730;51.248;22.534;2023-06-05T06:52:20;17.90;1.00
23122;DHT22;11730;51.248;22.534;2023-06-05T06:54:51;17.90;1.00
23122;DHT22;11730;51.248;22.534;2023-06-05T06:57:19;18.00;1.00
23122;DHT22;11730;51.248;22.534;2023-06-05T06:59:46;18.10;1.00
23122;DHT22;11730;51.248;22.534;2023-06-05T07:02:15;18.20;1.00
23122;DHT22;11730;51.248;22.534;2023-06-05T07:04:45;18.30;1.00
23122;DHT22;11730;51.248;22.534;2023-06-05T07:07:16;18.40;1.00
23122;DHT22;11730;51.248;22.534;2023-06-05T07:09:45;18.50;1.00
23122;DHT22;11730;51.248;22.534;2023-06-05T07:12:14;18.60;1.00
23122;DHT22;11730;51.248;22.534;2023-06-05T07:14:42;18.70;1.00
23122;DHT22;11730;51.248;22.534;2023-06-05T07:17:09;18.80;1.00
23122;DHT22;11730;51.248;22.534;2023-06-05T07:19:36;19.00;1.00
23122;DHT22;11730;51.248;22.534;2023-06-05T07:22:04;19.10;1.00
23122;DHT22;11730;51.248;22.534;2023-06-05T07:24:32;19.20;1.00
23122;DHT22;11730;51.248;22.534;2023-06-05T07:27:01;19.20;1.00
23122;DHT22;11730;51.248;22.534;2023-06-05T07:29:28;19.40;1.00
23122;DHT22;11730;51.248;22.534;2023-06-05T07:31:57;19.50;1.00
23122;DHT22;11730;51.248;22.534;2023-06-05T07:34:26;19.70;1.00
23122;DHT22;11730;51.248;22.534;2023-06-05T07:36:53;19.90;1.00
23122;DHT22;11730;51.248;22.534;2023-06-05T07:39:22;20.10;1.00
23122;DHT22;11730;51.248;22.534;2023-06-05T07:41:50;20.30;1.00
23122;DHT22;11730;51.248;22.534;2023-06-05T07:44:18;20.60;1.00
23122;DHT22;11730;51.248;22.534;2023-06-05T07:46:47;20.80;1.00
23122;DHT22;11730;51.248;22.534;2023-06-05T07:49:14;21.30;1.00
23122;DHT22;11730;51.248;22.534;2023-06-05T07:51:43;21.30;1.00
23122;DHT22;11730;51.248;22.534;2023-06-05T07:54:11;21.60;1.00
23122;DHT22;11730;51.248;22.534;2023-06-05T07:56:39;22.00;1.00
23122;DHT22;11730;51.248;22.534;2023-06-05T07:59:07;22.30;1.00
23122;DHT22;11730;51.248;22.534;2023-06-05T08:01:35;22.50;1.00
23122;DHT22;11730;51.248;22.534;2023-06-05T08:04:04;22.70;1.00
23122;DHT22;11730;51.248;22.534;2023-06-05T08:06:31;22.80;1.00
23122;DHT22;11730;51.248;22.534;2023-06-05T08:08:59;22.90;1.00
23122;DHT22;11730;51.248;22.534;2023-06-05T08:11:26;23.20;1.00
23122;DHT22;11730;51.248;22.534;2023-06-05T08:13:55;23.40;1.00
23122;DHT22;11730;51.248;22.534;2023-06-05T08:16:22;23.80;1.00
23122;DHT22;11730;51.248;22.534;2023-06-05T08:18:49;23.80;1.00
23122;DHT22;11730;51.248;22.534;2023-06-05T08:21:16;23.50;1.00
23122;DHT22;11730;51.248;22.534;2023-06-05T08:23:43;23.10;1.00
23122;DHT22;11730;51.248;22.534;2023-06-05T08:26:10;23.30;1.00
23122;DHT22;11730;51.248;22.534;2023-06-05T08:28:38;23.50;1.00
23122;DHT22;11730;51.248;22.534;2023-06-05T08:31:09;23.00;1.00
23122;DHT22;11730;51.248;22.534;2023-06-05T08:33:38;23.50;1.00
23122;DHT22;11730;51.248;22.534;2023-06-05T08:36:05;23.60;1.00
23122;DHT22;11730;51.248;22.534;2023-06-05T08:38:32;24.00;1.00
23122;DHT22;11730;51.248;22.534;2023-06-05T08:41:01;24.30;1.00
23122;DHT22;11730;51.248;22.534;2023-06-05T08:43:29;24.00;1.00
23122;DHT22;11730;51.248;22.534;2023-06-05T08:45:56;23.90;1.00
23122;DHT22;11730;51.248;22.534;2023-06-05T08:48:24;24.00;1.00
23122;DHT22;11730;51.248;22.534;2023-06-05T08:50:52;23.00;1.00
23122;DHT22;11730;51.248;22.534;2023-06-05T08:53:23;23.60;1.00
23122;DHT22;11730;51.248;22.534;2023-06-05T08:55:54;23.70;1.00
23122;DHT22;11730;51.248;22.534;2023-06-05T08:58:23;24.30;1.00
23122;DHT22;11730;51.248;22.534;2023-06-05T09:00:50;24.60;1.00
23122;DHT22;11730;51.248;22.534;2023-06-05T09:03:18;24.00;1.00
23122;DHT22;11730;51.248;22.534;2023-06-05T09:05:47;24.40;1.00
23122;DHT22;11730;51.248;22.534;2023-06-05T09:08:22;24.50;1.00
23122;DHT22;11730;51.248;22.534;2023-06-05T09:10:54;25.30;1.00
23122;DHT22;11730;51.248;22.534;2023-06-05T09:13:45;24.90;1.00
23122;DHT22;11730;51.248;22.534;2023-06-05T09:16:18;24.70;1.00
23122;DHT22;11730;51.248;22.534;2023-06-05T09:21:20;24.60;1.00
23122;DHT22;11730;51.248;22.534;2023-06-05T09:23:47;24.60;1.00
23122;DHT22;11730;51.248;22.534;2023-06-05T09:26:15;25.10;1.00
23122;DHT22;11730;51.248;22.534;2023-06-05T09:28:55;25.60;1.00
23122;DHT22;11730;51.248;22.534;2023-06-05T09:31:22;25.70;1.00
23122;DHT22;11730;51.248;22.534;2023-06-05T09:33:57;26.80;1.00
23122;DHT22;11730;51.248;22.534;2023-06-05T09:36:24;26.70;1.00
23122;DHT22;11730;51.248;22.534;2023-06-05T09:38:53;26.50;1.00
23122;DHT22;11730;51.248;22.534;2023-06-05T09:41:20;26.00;1.00
23122;DHT22;11730;51.248;22.534;2023-06-05T09:43:47;27.40;1.00
23122;DHT22;11730;51.248;22.534;2023-06-05T09:46:17;27.60;1.00
23122;DHT22;11730;51.248;22.534;2023-06-05T09:48:52;27.40;1.00
23122;DHT22;11730;51.248;22.534;2023-06-05T09:51:23;27.40;1.00
23122;DHT22;11730;51.248;22.534;2023-06-05T09:53:50;27.40;1.00
23122;DHT22;11730;51.248;22.534;2023-06-05T09:56:21;26.70;1.00
23122;DHT22;11730;51.248;22.534;2023-06-05T09:58:50;27.00;1.00
23122;DHT22;11730;51.248;22.534;2023-06-05T10:01:22;27.30;1.00
23122;DHT22;11730;51.248;22.534;2023-06-05T10:03:57;27.50;1.00
23122;DHT22;11730;51.248;22.534;2023-06-05T10:06:26;27.00;1.00
23122;DHT22;11730;51.248;22.534;2023-06-05T10:08:55;27.20;1.00
23122;DHT22;11730;51.248;22.534;2023-06-05T10:11:25;27.20;1.00
23122;DHT22;11730;51.248;22.534;2023-06-05T10:13:57;28.60;1.00
23122;DHT22;11730;51.248;22.534;2023-06-05T10:16:28;28.90;1.00
23122;DHT22;11730;51.248;22.534;2023-06-05T10:18:56;29.10;1.00
23122;DHT22;11730;51.248;22.534;2023-06-05T10:21:24;29.70;1.00
23122;DHT22;11730;51.248;22.534;2023-06-05T10:40:30;30.30;1.00
23122;DHT22;11730;51.248;22.534;2023-06-05T10:45:53;28.20;1.00
23122;DHT22;11730;51.248;22.534;2023-06-05T10:51:50;29.00;1.00
23122;DHT22;11730;51.248;22.534;2023-06-05T10:57:03;29.90;1.00
23122;DHT22;11730;51.248;22.534;2023-06-05T10:59:33;30.00;1.00
23122;DHT22;11730;51.248;22.534;2023-06-05T11:07:23;30.10;1.00
23122;DHT22;11730;51.248;22.534;2023-06-05T11:15:04;30.20;1.00
23122;DHT22;11730;51.248;22.534;2023-06-05T11:17:32;30.20;1.00
23122;DHT22;11730;51.248;22.534;2023-06-05T11:27:52;30.60;1.00
23122;DHT22;11730;51.248;22.534;2023-06-05T11:30:24;31.40;1.00
23122;DHT22;11730;51.248;22.534;2023-06-05T11:33:14;30.40;1.00
23122;DHT22;11730;51.248;22.534;2023-06-05T11:35:44;31.00;1.00
23122;DHT22;11730;51.248;22.534;2023-06-05T11:38:19;30.30;1.00
23122;DHT22;11730;51.248;22.534;2023-06-05T11:40:50;29.30;1.00
23122;DHT22;11730;51.248;22.534;2023-06-05T11:43:17;29.70;1.00
23122;DHT22;11730;51.248;22.534;2023-06-05T11:45:56;29.50;1.00
23122;DHT22;11730;51.248;22.534;2023-06-05T11:48:24;30.40;1.00
23122;DHT22;11730;51.248;22.534;2023-06-05T11:51:01;30.00;1.00
23122;DHT22;11730;51.248;22.534;2023-06-05T11:53:30;29.20;1.00
23122;DHT22;11730;51.248;22.534;2023-06-05T11:55:58;29.70;1.00
23122;DHT22;11730;51.248;22.534;2023-06-05T11:58:38;29.50;1.00
23122;DHT22;11730;51.248;22.534;2023-06-05T12:03:45;29.40;1.00
23122;DHT22;11730;51.248;22.534;2023-06-05T12:06:14;30.20;1.00
23122;DHT22;11730;51.248;22.534;2023-06-05T12:08:43;30.00;1.00
23122;DHT22;11730;51.248;22.534;2023-06-05T12:11:27;29.80;1.00
23122;DHT22;11730;51.248;22.534;2023-06-05T12:13:55;30.80;1.00
23122;DHT22;11730;51.248;22.534;2023-06-05T12:19:14;30.20;1.00
23122;DHT22;11730;51.248;22.534;2023-06-05T12:21:45;30.10;1.00
23122;DHT22;11730;51.248;22.534;2023-06-05T12:24:13;30.10;1.00
23122;DHT22;11730;51.248;22.534;2023-06-05T12:29:29;29.90;1.00
23122;DHT22;11730;51.248;22.534;2023-06-05T12:31:58;30.30;1.00
23122;DHT22;11730;51.248;22.534;2023-06-05T12:34:46;30.20;1.00
23122;DHT22;11730;51.248;22.534;2023-06-05T12:37:33;29.80;1.00
23122;DHT22;11730;51.248;22.534;2023-06-05T12:40:11;29.90;1.00
23122;DHT22;11730;51.248;22.534;2023-06-05T12:42:40;28.50;1.00
23122;DHT22;11730;51.248;22.534;2023-06-05T12:45:11;28.40;1.00
23122;DHT22;11730;51.248;22.534;2023-06-05T12:47:39;29.30;1.00
23122;DHT22;11730;51.248;22.534;2023-06-05T12:50:08;29.10;1.00
23122;DHT22;11730;51.248;22.534;2023-06-05T12:52:39;29.40;1.00
23122;DHT22;11730;51.248;22.534;2023-06-05T12:55:07;29.30;1.00
23122;DHT22;11730;51.248;22.534;2023-06-05T12:57:35;29.50;1.00
23122;DHT22;11730;51.248;22.534;2023-06-05T13:00:04;29.60;1.00
23122;DHT22;11730;51.248;22.534;2023-06-05T13:02:38;30.00;1.00
23122;DHT22;11730;51.248;22.534;2023-06-05T13:05:07;29.30;1.00
23122;DHT22;11730;51.248;22.534;2023-06-05T13:07:34;29.40;1.00
23122;DHT22;11730;51.248;22.534;2023-06-05T13:10:05;29.90;1.00
23122;DHT22;11730;51.248;22.534;2023-06-05T13:12:32;29.50;1.00
23122;DHT22;11730;51.248;22.534;2023-06-05T13:14:59;29.40;1.00
23122;DHT22;11730;51.248;22.534;2023-06-05T13:17:30;28.20;1.00
23122;DHT22;11730;51.248;22.534;2023-06-05T13:20:00;28.40;1.00
23122;DHT22;11730;51.248;22.534;2023-06-05T13:22:27;29.50;1.00
23122;DHT22;11730;51.248;22.534;2023-06-05T13:24:54;29.50;1.00
23122;DHT22;11730;51.248;22.534;2023-06-05T13:27:21;29.30;1.00
23122;DHT22;11730;51.248;22.534;2023-06-05T13:29:48;29.60;1.00
23122;DHT22;11730;51.248;22.534;2023-06-05T13:32:15;30.00;1.00
23122;DHT22;11730;51.248;22.534;2023-06-05T13:34:42;29.50;1.00
23122;DHT22;11730;51.248;22.534;2023-06-05T13:37:09;30.00;1.00
23122;DHT22;11730;51.248;22.534;2023-06-05T13:39:40;30.00;1.00
23122;DHT22;11730;51.248;22.534;2023-06-05T13:42:07;29.50;1.00
23122;DHT22;11730;51.248;22.534;2023-06-05T13:44:35;29.40;1.00
23122;DHT22;11730;51.248;22.534;2023-06-05T13:47:02;28.70;1.00
23122;DHT22;11730;51.248;22.534;2023-06-05T13:49:30;28.30;1.00
23122;DHT22;11730;51.248;22.534;2023-06-05T13:51:58;28.40;1.00
23122;DHT22;11730;51.248;22.534;2023-06-05T13:54:25;28.70;1.00
23122;DHT22;11730;51.248;22.534;2023-06-05T13:56:52;27.80;1.00
23122;DHT22;11730;51.248;22.534;2023-06-05T13:59:18;27.20;1.00
23122;DHT22;11730;51.248;22.534;2023-06-05T14:01:45;28.40;1.00
23122;DHT22;11730;51.248;22.534;2023-06-05T14:04:13;28.80;1.00
23122;DHT22;11730;51.248;22.534;2023-06-05T14:06:40;29.10;1.00
23122;DHT22;11730;51.248;22.534;2023-06-05T14:09:08;28.80;1.00
23122;DHT22;11730;51.248;22.534;2023-06-05T14:11:36;29.20;1.00
23122;DHT22;11730;51.248;22.534;2023-06-05T14:14:04;28.80;1.00
23122;DHT22;11730;51.248;22.534;2023-06-05T14:16:32;28.70;1.00
23122;DHT22;11730;51.248;22.534;2023-06-05T14:18:59;28.70;1.00
23122;DHT22;11730;51.248;22.534;2023-06-05T14:21:26;28.50;1.00
23122;DHT22;11730;51.248;22.534;2023-06-05T14:23:53;29.00;1.00
23122;DHT22;11730;51.248;22.534;2023-06-05T14:26:20;28.80;1.00
23122;DHT22;11730;51.248;22.534;2023-06-05T14:28:48;28.30;1.00
23122;DHT22;11730;51.248;22.534;2023-06-05T14:31:15;27.30;1.00
23122;DHT22;11730;51.248;22.534;2023-06-05T14:33:42;26.10;1.00
23122;DHT22;11730;51.248;22.534;2023-06-05T14:36:09;26.10;1.00
23122;DHT22;11730;51.248;22.534;2023-06-05T14:38:36;27.00;1.00
23122;DHT22;11730;51.248;22.534;2023-06-05T14:41:03;27.40;1.00
23122;DHT22;11730;51.248;22.534;2023-06-05T14:43:30;27.50;1.00
23122;DHT22;11730;51.248;22.534;2023-06-05T14:45:57;27.20;1.00
23122;DHT22;11730;51.248;22.534;2023-06-05T14:48:26;26.90;1.00
23122;DHT22;11730;51.248;22.534;2023-06-05T14:50:53;27.20;1.00
23122;DHT22;11730;51.248;22.534;2023-06-05T14:53:21;27.50;1.00
23122;DHT22;11730;51.248;22.534;2023-06-05T14:55:48;27.50;1.00
23122;DHT22;11730;51.248;22.534;2023-06-05T14:58:15;27.30;1.00
23122;DHT22;11730;51.248;22.534;2023-06-05T15:00:44;27.20;1.00
23122;DHT22;11730;51.248;22.534;2023-06-05T15:03:12;27.40;1.00
23122;DHT22;11730;51.248;22.534;2023-06-05T15:05:39;27.10;1.00
23122;DHT22;11730;51.248;22.534;2023-06-05T15:08:06;27.00;1.00
23122;DHT22;11730;51.248;22.534;2023-06-05T15:10:33;27.40;1.00
23122;DHT22;11730;51.248;22.534;2023-06-05T15:13:00;27.00;1.00
23122;DHT22;11730;51.248;22.534;2023-06-05T15:15:27;27.20;1.00
23122;DHT22;11730;51.248;22.534;2023-06-05T15:17:54;27.30;1.00
23122;DHT22;11730;51.248;22.534;2023-06-05T15:20:21;27.00;1.00
23122;DHT22;11730;51.248;22.534;2023-06-05T15:22:52;26.80;1.00
23122;DHT22;11730;51.248;22.534;2023-06-05T15:25:39;26.90;1.00
23122;DHT22;11730;51.248;22.534;2023-06-05T15:28:06;27.10;1.00
23122;DHT22;11730;51.248;22.534;2023-06-05T15:30:33;27.10;1.00
23122;DHT22;11730;51.248;22.534;2023-06-05T15:33:00;27.00;1.00
23122;DHT22;11730;51.248;22.534;2023-06-05T15:35:29;26.70;1.00
23122;DHT22;11730;51.248;22.534;2023-06-05T15:37:56;26.20;1.00
23122;DHT22;11730;51.248;22.534;2023-06-05T15:40:23;26.40;1.00
23122;DHT22;11730;51.248;22.534;2023-06-05T15:43:06;26.20;1.00
23122;DHT22;11730;51.248;22.534;2023-06-05T15:45:35;26.40;1.00
23122;DHT22;11730;51.248;22.534;2023-06-05T15:48:02;26.50;1.00
23122;DHT22;11730;51.248;22.534;2023-06-05T15:50:30;26.20;1.00
23122;DHT22;11730;51.248;22.534;2023-06-05T15:52:57;26.30;1.00
23122;DHT22;11730;51.248;22.534;2023-06-05T15:55:24;26.30;1.00
23122;DHT22;11730;51.248;22.534;2023-06-05T15:57:52;26.30;1.00
23122;DHT22;11730;51.248;22.534;2023-06-05T16:00:20;26.30;1.00
23122;DHT22;11730;51.248;22.534;2023-06-05T16:02:52;26.20;1.00
23122;DHT22;11730;51.248;22.534;2023-06-05T16:05:20;25.90;1.00
23122;DHT22;11730;51.248;22.534;2023-06-05T16:07:48;26.00;1.00
23122;DHT22;11730;51.248;22.534;2023-06-05T16:10:16;25.70;1.00
23122;DHT22;11730;51.248;22.534;2023-06-05T16:12:44;25.60;1.00
23122;DHT22;11730;51.248;22.534;2023-06-05T16:15:11;25.60;1.00
23122;DHT22;11730;51.248;22.534;2023-06-05T16:17:41;25.30;1.00
23122;DHT22;11730;51.248;22.534;2023-06-05T16:20:09;25.30;1.00
23122;DHT22;11730;51.248;22.534;2023-06-05T16:22:36;24.90;1.00
23122;DHT22;11730;51.248;22.534;2023-06-05T16:25:03;24.60;1.00
23122;DHT22;11730;51.248;22.534;2023-06-05T16:27:30;24.20;1.00
23122;DHT22;11730;51.248;22.534;2023-06-05T16:29:57;24.10;1.00
23122;DHT22;11730;51.248;22.534;2023-06-05T16:32:24;24.10;1.00
23122;DHT22;11730;51.248;22.534;2023-06-05T16:34:52;23.90;1.00
23122;DHT22;11730;51.248;22.534;2023-06-05T16:37:20;23.80;1.00